Los datos mostrados corresponden al resumen diario obtenido de los registros semihorarios entre las 0:00 y las 24:00 h, en horario solar.
| Estación | Fecha | V Km/h | DV | Vx Km/h | T ºC | Tn ºC | Tx ºC | H frío | HR % | Rad MJ/m2 día | H sol | P mm | ETo mm |
|---|---|---|---|---|---|---|---|---|---|---|---|---|---|
| Almoradí | 03/09/2026 | 2.52 | NE | 15.77 | 27.23 | 23.34 | 32.48 | 0 | 80.5 | 20.52 | 10.76 | 0 | 4.21 |
| Elx | 03/09/2026 | 3.35 | N | 19.5 | 28 | 22.23 | 33.85 | 0 | 74.34 | 22.53 | 11.04 | 0 | 4.76 |
| Callosa d'En Sarrià | 03/09/2026 | 1.24 | N | 10.05 | 26.28 | 20.87 | 32.02 | 0 | 71.17 | 22.14 | 10.71 | 0 | 4.12 |
| Callosa d'En Sarrià (malla) | 03/09/2026 | 0.84 | E | 7.2 | 26.92 | 21.1 | 33.7 | 0 | 57.05 | 18.29 | 10.07 | 0 | 3.46 |
| Catral | 03/09/2026 | 1.53 | SO | 13.86 | 26.98 | 21.26 | 33.37 | 0 | 76.5 | 19.55 | 9.95 | 0 | 3.88 |
| Altea | 03/09/2026 | 4.15 | NE | 15.8 | 26.35 | 21.9 | 31.56 | 0 | 74.6 | 22.25 | 11.14 | 0 | 4.58 |
| Planes | 03/09/2026 | 2.12 | O | 14.18 | 26.99 | 20.35 | 35.88 | 0 | 73.8 | 23.9 | 10.91 | 0 | 4.79 |
| Villena | 03/09/2026 | 4.51 | S | 18.24 | 26.2 | 19.03 | 34.62 | 0 | 65.52 | 23.58 | 10.97 | 0 | 5.2 |
| Camp de Mirra | 03/09/2026 | 4.5 | NO | 22.97 | 25.99 | 18.16 | 35.32 | 0 | 65.69 | 23.3 | 11.21 | 0 | 5.22 |
| Agost | 03/09/2026 | 3.35 | E | 16.16 | 25.99 | 19.01 | 32.37 | 0 | 66.96 | 22 | 11.2 | 0 | 4.5 |
| Orihuela - La Murada | 03/09/2026 | 3.29 | NE | 18.21 | 27.18 | 21.5 | 33.97 | 0 | 75.4 | 21.64 | 11.11 | 0 | 4.6 |
| Villajoyosa | 03/09/2026 | 2.35 | S | 12.7 | 26.8 | 21.29 | 32.35 | 0 | 67.34 | 22.33 | 11.15 | 0 | 4.39 |
| Ondara | 03/09/2026 | 3.05 | SE | 14.32 | 26.91 | 21.99 | 33.32 | 0 | 77.7 | 21.57 | 10.96 | 0 | 4.48 |
| Dénia | 03/09/2026 | 3.5 | NO | 17.04 | 27.02 | 21.59 | 33.47 | 0 | 72.8 | 20.5 | 10.86 | 0.1 | 4.48 |
| Pinoso | 03/09/2026 | 5.05 | O | 19.12 | 25.48 | 18.37 | 33.9 | 0 | 61.4 | 23.15 | 11.03 | 0 | 5.1 |
| Monforte del Cid | 03/09/2026 | 3.83 | SE | 18.95 | 26.47 | 19.63 | 33.45 | 0 | 68.64 | 22.74 | 11.2 | 0 | 4.84 |
| Crevillent | 03/09/2026 | 2.77 | SE | 15.98 | 27.88 | 23.82 | 33.49 | 0 | 73.2 | 21.73 | 10.89 | 0 | 4.55 |
| Vall d'Uixó | 30/08/2026 | 3.25 | N | 12.1 | 25.07 | 18.28 | 32.32 | 0 | 58.58 | 24.3 | 11.12 | 0 | 4.78 |
| Vila-real EEA | 03/09/2026 | 5.32 | N | 17.43 | 27.54 | 22.89 | 32.59 | 0 | 74.97 | 20.6 | 10.85 | 0 | 4.59 |
| Onda | 03/09/2026 | 4.08 | SO | 17.96 | 26.16 | 21.41 | 31.7 | 0 | 76.5 | 22.66 | 11.17 | 0 | 4.59 |
| Vila-Real | 03/09/2026 | 3.57 | E | 17.54 | 26.52 | 22.52 | 30.96 | 0 | 79.5 | 21.41 | 10.88 | 0 | 4.29 |
| San Rafael del Río | 03/09/2026 | 3.62 | S | 18.21 | 25.66 | 21.51 | 31.4 | 0 | 79.4 | 21.18 | 10.9 | 0 | 4.27 |
| Castelló de la Plana | 03/09/2026 | 1.96 | S | 10.2 | 26.22 | 21.1 | 32.76 | 0 | 79.3 | 21.3 | 11.07 | 0 | 4.15 |
| Ribera de Cabanes | 03/09/2026 | 3.69 | SO | 17.5 | 26.35 | 22.11 | 31.16 | 0 | 42.6 | 21.58 | 11.04 | 0 | 4.62 |
| Nules | 03/09/2026 | 4.22 | SE | 16.44 | 26.44 | 21.86 | 31.5 | 0 | 78.9 | 20.67 | 11.09 | 0 | 4.3 |
| Segorbe | 03/09/2026 | 2.06 | SE | 12.31 | 25.6 | 18.43 | 33.75 | 0 | 72.3 | 21.67 | 10.68 | 0 | 4.22 |
| Pedralba | 03/09/2026 | 2.6 | S | 15.63 | 26.28 | 20.37 | 34.23 | 0 | 65.7 | 21.05 | 10.69 | 0 | 4.34 |
| Benavites | 03/09/2026 | 1.91 | E | 12.28 | 24.37 | 18.9 | 30 | 0 | 88.5 | 20.77 | 10.89 | 0 | 3.82 |
| Moncada | 03/09/2026 | 4.72 | N | 21.52 | 26.54 | 21.27 | 32.16 | 0 | 77.98 | 22.78 | 11.1 | 0.2 | 4.74 |
| Carcaixent | 03/09/2026 | 3.29 | N | 19.17 | 27.81 | 21 | 35.86 | 0 | 68.5 | 22.45 | 10.77 | 0 | 4.86 |
| Carlet | 03/09/2026 | 4.05 | N | 16.75 | 27.09 | 21.4 | 34.02 | 0 | 68.64 | 21.71 | 11.01 | 0 | 4.76 |
| Llutxent | 03/09/2026 | 4.87 | N | 21.07 | 26.81 | 21.87 | 32.97 | 0 | 77.82 | 21.8 | 11.16 | 0 | 4.75 |
| Requena | 03/09/2026 | 4.44 | N | 17.97 | 27.03 | 18.91 | 38.77 | 0 | 60.64 | 23.83 | 11.08 | 0 | 5.75 |
| Algimia de Alfara | 03/09/2026 | 2.89 | E | 16.93 | 25.84 | 19.57 | 32.1 | 0 | 78.32 | 22.2 | 11.08 | 0 | 4.35 |
| Valencia - UPV | 03/09/2026 | 3.98 | E | 17.04 | 26.84 | 23.23 | 30 | 0 | 79.48 | 16.26 | 10.69 | 0 | 3.54 |
| Algemesí | 03/09/2026 | 2.87 | NE | 16.3 | 26.17 | 21.14 | 32.64 | 0 | 81.8 | 19.8 | 10.45 | 0 | 4.06 |
| Picassent | 03/09/2026 | 2.3 | E | 14.85 | 25.81 | 20.47 | 32.5 | 0 | 81.7 | 21.63 | 11.02 | 0 | 4.22 |
| Montesa | 03/09/2026 | 1.54 | NE | 15.56 | 27.5 | 22.2 | 35.88 | 0 | 73.4 | 21.22 | 10.38 | 0 | 4.28 |
| Xàtiva | 03/09/2026 | 2.57 | N | 15.42 | 27.66 | 21.74 | 36.15 | 0 | 75.5 | 21.82 | 10.86 | 0 | 4.62 |
| Llíria | 03/09/2026 | 2.73 | E | 16.33 | 26.15 | 20.1 | 33.5 | 0 | 72.5 | 21.26 | 11.18 | 0 | 4.33 |
| Sagunt | 03/09/2026 | 3.65 | E | 15.1 | 26.66 | 22.36 | 31.3 | 0 | 74.2 | 20.95 | 11.02 | 0 | 4.34 |
| Campo Arcís | 03/09/2026 | 3.53 | E | 21.73 | 26.17 | 17.96 | 37.57 | 0 | 69.53 | 23.38 | 11.11 | 0 | 5.18 |
| Villalonga | 03/09/2026 | 2.22 | N | 16.26 | 27.48 | 23.15 | 34.07 | 0 | 86.9 | 21.02 | 11.1 | 0 | 4.32 |
| Gandía | 03/09/2026 | 2.29 | N | 14.57 | 27.05 | 22.02 | 32.76 | 0 | 78.7 | 21 | 10.95 | 0 | 4.22 |
| Bolbaite | 03/09/2026 | 2.83 | N | 15.17 | 26.29 | 19.93 | 34.39 | 0 | 76.5 | 20.71 | 11.06 | 0 | 4.33 |
| Bétera | 03/09/2026 | 4.18 | SE | 18.87 | 26.14 | 21 | 31.46 | 0 | 76.9 | 22.3 | 11.18 | 0 | 4.56 |
| Chulilla | 03/09/2026 | 3.59 | SE | 19.76 | 25.56 | 19.14 | 33.09 | 0 | 69.45 | 22.33 | 11.23 | 0 | 4.6 |
| Godelleta | 03/09/2026 | 2.68 | S | 15.07 | 26.04 | 20.2 | 33.88 | 0 | 76.09 | 22.02 | 11.14 | 0 | 4.45 |
| Bèlgida | 03/09/2026 | 3 | E | 17.18 | 27.04 | 21.05 | 35.03 | 0 | 78.5 | 21.59 | 11.08 | 0 | 4.58 |
| Polinyà de Xúquer | 03/09/2026 | 2.56 | E | 20.39 | 26.16 | 21.41 | 31.81 | 0 | 81.7 | 21.54 | 10.7 | 0 | 4.23 |
| Benifaió | 03/09/2026 | 2.29 | NE | 14.92 | 26.69 | 21.36 | 33.27 | 0 | 80.3 | 22.39 | 10.95 | 0 | 4.42 |
| Cheste | 03/09/2026 | 1.43 | SE | 11.5 | 25.35 | 18.31 | 35.02 | 0 | 69.56 | 22.33 | 11.08 | 0 | 4.2 |
| Tavernes de la Valldigna | 03/09/2026 | 3.32 | E | 15.91 | 26.34 | 21.86 | 30.82 | 0 | 87.3 | 19.87 | 10.73 | 0 | 4 |
| Castelló | 03/09/2026 | 3.15 | N | 17.99 | 27.25 | 21.78 | 34.1 | 0 | 78.8 | 16.21 | 8.61 | 0 | 3.72 |
© Copyright 2011, Instituto Valenciano de Investigaciones Agrarias.
Los datos meteorológicos ofrecidos es esta página son informativos, por lo que carecen de carácter oficial. Los datos son publicados automáticamente y, por lo tanto, pueden no estar sujetos a una completa validación.
|
Cargando ...espere por favor... |